sensor_id;sensor_type;location;lat;lon;timestamp;pressure;altitude;pressure_sealevel;temperature
20867;BMP280;10593;48.398;10.698;2024-01-07T00:00:04;95411.28;;;11.23
20867;BMP280;10593;48.398;10.698;2024-01-07T00:02:30;95412.16;;;11.22
20867;BMP280;10593;48.398;10.698;2024-01-07T00:04:59;95402.75;;;11.23
20867;BMP280;10593;48.398;10.698;2024-01-07T00:07:24;95405.34;;;11.21
20867;BMP280;10593;48.398;10.698;2024-01-07T00:09:50;95397.63;;;11.21
20867;BMP280;10593;48.398;10.698;2024-01-07T00:12:16;95404.50;;;11.21
20867;BMP280;10593;48.398;10.698;2024-01-07T00:14:42;95404.56;;;11.19
20867;BMP280;10593;48.398;10.698;2024-01-07T00:17:09;95409.69;;;11.19
20867;BMP280;10593;48.398;10.698;2024-01-07T00:19:35;95402.88;;;11.18
20867;BMP280;10593;48.398;10.698;2024-01-07T00:22:03;95406.34;;;11.17
20867;BMP280;10593;48.398;10.698;2024-01-07T00:24:29;95408.03;;;11.18
20867;BMP280;10593;48.398;10.698;2024-01-07T00:26:55;95403.78;;;11.17
20867;BMP280;10593;48.398;10.698;2024-01-07T00:29:21;95407.16;;;11.18
20867;BMP280;10593;48.398;10.698;2024-01-07T00:31:47;95402.91;;;11.17
20867;BMP280;10593;48.398;10.698;2024-01-07T00:34:12;95401.22;;;11.17
20867;BMP280;10593;48.398;10.698;2024-01-07T00:36:38;95401.22;;;11.17
20867;BMP280;10593;48.398;10.698;2024-01-07T00:39:03;95405.50;;;11.17
20867;BMP280;10593;48.398;10.698;2024-01-07T00:41:29;95402.03;;;11.18
20867;BMP280;10593;48.398;10.698;2024-01-07T00:43:57;95403.78;;;11.17
20867;BMP280;10593;48.398;10.698;2024-01-07T00:46:23;95400.31;;;11.18
20867;BMP280;10593;48.398;10.698;2024-01-07T00:48:48;95399.47;;;11.18
20867;BMP280;10593;48.398;10.698;2024-01-07T00:51:14;95397.78;;;11.17
20867;BMP280;10593;48.398;10.698;2024-01-07T00:53:40;95401.25;;;11.16
20867;BMP280;10593;48.398;10.698;2024-01-07T00:56:06;95405.50;;;11.17
20867;BMP280;10593;48.398;10.698;2024-01-07T00:58:32;95398.69;;;11.16
20867;BMP280;10593;48.398;10.698;2024-01-07T01:00:57;95401.25;;;11.16
20867;BMP280;10593;48.398;10.698;2024-01-07T01:03:26;95405.53;;;11.15
20867;BMP280;10593;48.398;10.698;2024-01-07T01:05:52;95403.84;;;11.14
20867;BMP280;10593;48.398;10.698;2024-01-07T01:08:17;95397.03;;;11.13
20867;BMP280;10593;48.398;10.698;2024-01-07T01:10:43;95404.72;;;11.15
20867;BMP280;10593;48.398;10.698;2024-01-07T01:13:09;95409.00;;;11.14
20867;BMP280;10593;48.398;10.698;2024-01-07T01:15:35;95404.81;;;11.12
20867;BMP280;10593;48.398;10.698;2024-01-07T01:18:01;95409.06;;;11.13
20867;BMP280;10593;48.398;10.698;2024-01-07T01:20:26;95412.47;;;11.13
20867;BMP280;10593;48.398;10.698;2024-01-07T01:22:52;95415.03;;;11.13
20867;BMP280;10593;48.398;10.698;2024-01-07T01:25:18;95417.59;;;11.13
20867;BMP280;10593;48.398;10.698;2024-01-07T01:27:43;95423.63;;;11.12
20867;BMP280;10593;48.398;10.698;2024-01-07T01:30:11;95417.72;;;11.10
20867;BMP280;10593;48.398;10.698;2024-01-07T01:32:36;95412.56;;;11.10
20867;BMP280;10593;48.398;10.698;2024-01-07T01:35:02;95411.75;;;11.10
20867;BMP280;10593;48.398;10.698;2024-01-07T01:37:28;95407.47;;;11.09
20867;BMP280;10593;48.398;10.698;2024-01-07T01:39:54;95409.22;;;11.08
20867;BMP280;10593;48.398;10.698;2024-01-07T01:42:19;95411.81;;;11.07
20867;BMP280;10593;48.398;10.698;2024-01-07T01:44:46;95405.88;;;11.06
20867;BMP280;10593;48.398;10.698;2024-01-07T01:47:13;95409.31;;;11.05
20867;BMP280;10593;48.398;10.698;2024-01-07T01:49:39;95409.31;;;11.05
20867;BMP280;10593;48.398;10.698;2024-01-07T01:52:05;95405.06;;;11.04
20867;BMP280;10593;48.398;10.698;2024-01-07T01:54:31;95410.22;;;11.04
20867;BMP280;10593;48.398;10.698;2024-01-07T01:56:57;95413.69;;;11.03
20867;BMP280;10593;48.398;10.698;2024-01-07T01:59:23;95415.41;;;11.03
20867;BMP280;10593;48.398;10.698;2024-01-07T02:01:50;95407.72;;;11.01
20867;BMP280;10593;48.398;10.698;2024-01-07T02:04:16;95407.69;;;11.03
20867;BMP280;10593;48.398;10.698;2024-01-07T02:06:45;95412.00;;;11.02
20867;BMP280;10593;48.398;10.698;2024-01-07T02:09:10;95406.00;;;11.02
20867;BMP280;10593;48.398;10.698;2024-01-07T02:11:36;95407.72;;;11.01
20867;BMP280;10593;48.398;10.698;2024-01-07T02:14:02;95406.94;;;10.99
20867;BMP280;10593;48.398;10.698;2024-01-07T02:16:27;95411.19;;;11.00
20867;BMP280;10593;48.398;10.698;2024-01-07T02:18:53;95410.38;;;11.00
20867;BMP280;10593;48.398;10.698;2024-01-07T02:21:19;95415.53;;;10.98
20867;BMP280;10593;48.398;10.698;2024-01-07T02:23:44;95411.25;;;10.99
20867;BMP280;10593;48.398;10.698;2024-01-07T02:26:10;95411.28;;;10.97
20867;BMP280;10593;48.398;10.698;2024-01-07T02:28:35;95404.47;;;10.96
20867;BMP280;10593;48.398;10.698;2024-01-07T02:31:01;95414.78;;;10.95
20867;BMP280;10593;48.398;10.698;2024-01-07T02:33:27;95418.22;;;10.95
20867;BMP280;10593;48.398;10.698;2024-01-07T02:35:53;95420.78;;;10.95
20867;BMP280;10593;48.398;10.698;2024-01-07T02:38:19;95425.03;;;10.96
20867;BMP280;10593;48.398;10.698;2024-01-07T02:40:44;95416.53;;;10.94
20867;BMP280;10593;48.398;10.698;2024-01-07T02:43:10;95421.69;;;10.94
20867;BMP280;10593;48.398;10.698;2024-01-07T02:45:35;95425.94;;;10.95
20867;BMP280;10593;48.398;10.698;2024-01-07T02:48:01;95416.53;;;10.94
20867;BMP280;10593;48.398;10.698;2024-01-07T02:50:27;95416.53;;;10.94
20867;BMP280;10593;48.398;10.698;2024-01-07T02:52:52;95413.13;;;10.94
20867;BMP280;10593;48.398;10.698;2024-01-07T02:55:18;95410.63;;;10.92
20867;BMP280;10593;48.398;10.698;2024-01-07T02:57:44;95417.47;;;10.92
20867;BMP280;10593;48.398;10.698;2024-01-07T03:00:10;95410.63;;;10.92
20867;BMP280;10593;48.398;10.698;2024-01-07T03:02:36;95411.50;;;10.91
20867;BMP280;10593;48.398;10.698;2024-01-07T03:05:02;95416.66;;;10.91
20867;BMP280;10593;48.398;10.698;2024-01-07T03:07:27;95414.97;;;10.90
20867;BMP280;10593;48.398;10.698;2024-01-07T03:09:53;95420.09;;;10.90
20867;BMP280;10593;48.398;10.698;2024-01-07T03:12:19;95411.50;;;10.91
20867;BMP280;10593;48.398;10.698;2024-01-07T03:14:44;95421.00;;;10.89
20867;BMP280;10593;48.398;10.698;2024-01-07T03:17:11;95413.28;;;10.89
20867;BMP280;10593;48.398;10.698;2024-01-07T03:19:38;95414.09;;;10.90
20867;BMP280;10593;48.398;10.698;2024-01-07T03:22:04;95421.00;;;10.89
20867;BMP280;10593;48.398;10.698;2024-01-07T03:24:31;95422.72;;;10.89
20867;BMP280;10593;48.398;10.698;2024-01-07T03:26:56;95421.84;;;10.88
20867;BMP280;10593;48.398;10.698;2024-01-07T03:29:22;95421.84;;;10.88
20867;BMP280;10593;48.398;10.698;2024-01-07T03:31:48;95420.13;;;10.89
20867;BMP280;10593;48.398;10.698;2024-01-07T03:34:13;95418.47;;;10.88
20867;BMP280;10593;48.398;10.698;2024-01-07T03:36:39;95413.38;;;10.86
20867;BMP280;10593;48.398;10.698;2024-01-07T03:39:04;95418.50;;;10.86
20867;BMP280;10593;48.398;10.698;2024-01-07T03:41:30;95416.00;;;10.85
20867;BMP280;10593;48.398;10.698;2024-01-07T03:43:56;95421.97;;;10.85
20867;BMP280;10593;48.398;10.698;2024-01-07T03:46:22;95419.41;;;10.85
20867;BMP280;10593;48.398;10.698;2024-01-07T03:48:48;95426.28;;;10.85
20867;BMP280;10593;48.398;10.698;2024-01-07T03:51:13;95427.09;;;10.85
20867;BMP280;10593;48.398;10.698;2024-01-07T03:53:39;95426.22;;;10.86
20867;BMP280;10593;48.398;10.698;2024-01-07T03:56:05;95419.41;;;10.85
20867;BMP280;10593;48.398;10.698;2024-01-07T03:58:31;95426.28;;;10.85
20867;BMP280;10593;48.398;10.698;2024-01-07T04:00:57;95426.28;;;10.85
20867;BMP280;10593;48.398;10.698;2024-01-07T04:03:23;95428.00;;;10.84
20867;BMP280;10593;48.398;10.698;2024-01-07T04:05:48;95426.28;;;10.85
20867;BMP280;10593;48.398;10.698;2024-01-07T04:08:14;95430.56;;;10.84
20867;BMP280;10593;48.398;10.698;2024-01-07T04:10:41;95427.22;;;10.82
20867;BMP280;10593;48.398;10.698;2024-01-07T04:13:07;95431.44;;;10.83
20867;BMP280;10593;48.398;10.698;2024-01-07T04:15:33;95432.38;;;10.81
20867;BMP280;10593;48.398;10.698;2024-01-07T04:18:03;95431.50;;;10.82
20867;BMP280;10593;48.398;10.698;2024-01-07T04:20:30;95435.81;;;10.81
20867;BMP280;10593;48.398;10.698;2024-01-07T04:22:56;95440.94;;;10.81
20867;BMP280;10593;48.398;10.698;2024-01-07T04:25:23;95435.81;;;10.81
20867;BMP280;10593;48.398;10.698;2024-01-07T04:27:49;95440.09;;;10.81
20867;BMP280;10593;48.398;10.698;2024-01-07T04:30:15;95445.22;;;10.81
20867;BMP280;10593;48.398;10.698;2024-01-07T04:32:40;95438.41;;;10.80
20867;BMP280;10593;48.398;10.698;2024-01-07T04:35:06;95443.56;;;10.80
20867;BMP280;10593;48.398;10.698;2024-01-07T04:37:33;95447.88;;;10.79
20867;BMP280;10593;48.398;10.698;2024-01-07T04:39:59;95448.75;;;10.78
20867;BMP280;10593;48.398;10.698;2024-01-07T04:42:24;95439.38;;;10.77
20867;BMP280;10593;48.398;10.698;2024-01-07T04:44:50;95438.50;;;10.77
20867;BMP280;10593;48.398;10.698;2024-01-07T04:47:33;95448.78;;;10.77
20867;BMP280;10593;48.398;10.698;2024-01-07T04:50:03;95454.81;;;10.76
20867;BMP280;10593;48.398;10.698;2024-01-07T04:52:29;95458.28;;;10.75
20867;BMP280;10593;48.398;10.698;2024-01-07T04:54:56;95450.56;;;10.75
20867;BMP280;10593;48.398;10.698;2024-01-07T04:57:22;95457.44;;;10.74
20867;BMP280;10593;48.398;10.698;2024-01-07T04:59:49;95459.13;;;10.75
20867;BMP280;10593;48.398;10.698;2024-01-07T05:02:15;95453.16;;;10.75
20867;BMP280;10593;48.398;10.698;2024-01-07T05:04:42;95461.75;;;10.74
20867;BMP280;10593;48.398;10.698;2024-01-07T05:07:07;95465.13;;;10.74
20867;BMP280;10593;48.398;10.698;2024-01-07T05:09:33;95472.00;;;10.74
20867;BMP280;10593;48.398;10.698;2024-01-07T05:12:00;95466.09;;;10.72
20867;BMP280;10593;48.398;10.698;2024-01-07T05:14:26;95466.09;;;10.72
20867;BMP280;10593;48.398;10.698;2024-01-07T05:16:54;95481.50;;;10.72
20867;BMP280;10593;48.398;10.698;2024-01-07T05:19:20;95477.25;;;10.71
20867;BMP280;10593;48.398;10.698;2024-01-07T05:21:46;95478.16;;;10.70
20867;BMP280;10593;48.398;10.698;2024-01-07T05:24:11;95479.84;;;10.69
20867;BMP280;10593;48.398;10.698;2024-01-07T05:26:42;95477.28;;;10.69
20867;BMP280;10593;48.398;10.698;2024-01-07T05:29:08;95481.59;;;10.69
20867;BMP280;10593;48.398;10.698;2024-01-07T05:31:34;95485.88;;;10.68
20867;BMP280;10593;48.398;10.698;2024-01-07T05:33:59;95485.00;;;10.69
20867;BMP280;10593;48.398;10.698;2024-01-07T05:36:25;95486.75;;;10.69
20867;BMP280;10593;48.398;10.698;2024-01-07T05:38:51;95492.72;;;10.68
20867;BMP280;10593;48.398;10.698;2024-01-07T05:41:17;95487.66;;;10.66
20867;BMP280;10593;48.398;10.698;2024-01-07T05:43:42;95495.38;;;10.66
20867;BMP280;10593;48.398;10.698;2024-01-07T05:46:08;95486.81;;;10.66
20867;BMP280;10593;48.398;10.698;2024-01-07T05:48:46;95497.94;;;10.66
20867;BMP280;10593;48.398;10.698;2024-01-07T05:51:13;95495.41;;;10.65
20867;BMP280;10593;48.398;10.698;2024-01-07T05:53:39;95501.41;;;10.65
20867;BMP280;10593;48.398;10.698;2024-01-07T05:56:05;95503.13;;;10.65
20867;BMP280;10593;48.398;10.698;2024-01-07T05:58:31;95498.81;;;10.65
20867;BMP280;10593;48.398;10.698;2024-01-07T06:00:57;95500.59;;;10.63
20867;BMP280;10593;48.398;10.698;2024-01-07T06:03:22;95507.47;;;10.63
20867;BMP280;10593;48.398;10.698;2024-01-07T06:05:48;95504.88;;;10.63
20867;BMP280;10593;48.398;10.698;2024-01-07T06:08:14;95505.78;;;10.62
20867;BMP280;10593;48.398;10.698;2024-01-07T06:10:40;95510.06;;;10.61
20867;BMP280;10593;48.398;10.698;2024-01-07T06:13:06;95516.06;;;10.62
20867;BMP280;10593;48.398;10.698;2024-01-07T06:15:32;95512.63;;;10.61
20867;BMP280;10593;48.398;10.698;2024-01-07T06:17:57;95510.06;;;10.61
20867;BMP280;10593;48.398;10.698;2024-01-07T06:20:23;95510.06;;;10.61
20867;BMP280;10593;48.398;10.698;2024-01-07T06:22:49;95509.28;;;10.59
20867;BMP280;10593;48.398;10.698;2024-01-07T06:25:16;95511.84;;;10.59
20867;BMP280;10593;48.398;10.698;2024-01-07T06:27:42;95509.34;;;10.58
20867;BMP280;10593;48.398;10.698;2024-01-07T06:30:08;95513.63;;;10.57
20867;BMP280;10593;48.398;10.698;2024-01-07T06:32:34;95512.78;;;10.57
20867;BMP280;10593;48.398;10.698;2024-01-07T06:35:01;95518.81;;;10.56
20867;BMP280;10593;48.398;10.698;2024-01-07T06:37:28;95526.53;;;10.56
20867;BMP280;10593;48.398;10.698;2024-01-07T06:39:56;95522.22;;;10.56
20867;BMP280;10593;48.398;10.698;2024-01-07T06:42:24;95518.84;;;10.54
20867;BMP280;10593;48.398;10.698;2024-01-07T06:44:50;95519.66;;;10.55
20867;BMP280;10593;48.398;10.698;2024-01-07T06:47:16;95518.84;;;10.54
20867;BMP280;10593;48.398;10.698;2024-01-07T06:49:41;95529.13;;;10.54
20867;BMP280;10593;48.398;10.698;2024-01-07T06:52:07;95517.16;;;10.53
20867;BMP280;10593;48.398;10.698;2024-01-07T06:54:32;95527.44;;;10.53
20867;BMP280;10593;48.398;10.698;2024-01-07T06:56:58;95531.72;;;10.53
20867;BMP280;10593;48.398;10.698;2024-01-07T06:59:24;95539.44;;;10.53
20867;BMP280;10593;48.398;10.698;2024-01-07T07:01:49;95549.75;;;10.51
20867;BMP280;10593;48.398;10.698;2024-01-07T07:04:15;95541.16;;;10.52
20867;BMP280;10593;48.398;10.698;2024-01-07T07:06:41;95544.63;;;10.51
20867;BMP280;10593;48.398;10.698;2024-01-07T07:09:06;95555.72;;;10.52
20867;BMP280;10593;48.398;10.698;2024-01-07T07:11:32;95552.34;;;10.51
20867;BMP280;10593;48.398;10.698;2024-01-07T07:13:58;95549.75;;;10.51
20867;BMP280;10593;48.398;10.698;2024-01-07T07:16:23;95555.78;;;10.50
20867;BMP280;10593;48.398;10.698;2024-01-07T07:18:50;95552.34;;;10.51
20867;BMP280;10593;48.398;10.698;2024-01-07T07:21:16;95556.69;;;10.49
20867;BMP280;10593;48.398;10.698;2024-01-07T07:23:41;95557.50;;;10.50
20867;BMP280;10593;48.398;10.698;2024-01-07T07:26:07;95567.78;;;10.50
20867;BMP280;10593;48.398;10.698;2024-01-07T07:28:33;95566.94;;;10.49
20867;BMP280;10593;48.398;10.698;2024-01-07T07:30:59;95565.25;;;10.48
20867;BMP280;10593;48.398;10.698;2024-01-07T07:33:25;95571.22;;;10.49
20867;BMP280;10593;48.398;10.698;2024-01-07T07:35:50;95578.94;;;10.49
20867;BMP280;10593;48.398;10.698;2024-01-07T07:38:16;95574.72;;;10.46
20867;BMP280;10593;48.398;10.698;2024-01-07T07:40:41;95578.97;;;10.47
20867;BMP280;10593;48.398;10.698;2024-01-07T07:43:08;95584.97;;;10.46
20867;BMP280;10593;48.398;10.698;2024-01-07T07:45:34;95576.47;;;10.46
20867;BMP280;10593;48.398;10.698;2024-01-07T07:48:00;95585.81;;;10.48
20867;BMP280;10593;48.398;10.698;2024-01-07T07:50:25;95585.88;;;10.45
20867;BMP280;10593;48.398;10.698;2024-01-07T07:52:51;95586.72;;;10.46
20867;BMP280;10593;48.398;10.698;2024-01-07T07:55:17;95598.72;;;10.45
20867;BMP280;10593;48.398;10.698;2024-01-07T07:57:42;95597.88;;;10.45
20867;BMP280;10593;48.398;10.698;2024-01-07T08:00:08;95602.97;;;10.46
20867;BMP280;10593;48.398;10.698;2024-01-07T08:02:38;95608.16;;;10.45
20867;BMP280;10593;48.398;10.698;2024-01-07T08:05:06;95608.09;;;10.46
20867;BMP280;10593;48.398;10.698;2024-01-07T08:07:32;95611.56;;;10.45
20867;BMP280;10593;48.398;10.698;2024-01-07T08:09:57;95609.84;;;10.46
20867;BMP280;10593;48.398;10.698;2024-01-07T08:12:23;95611.56;;;10.45
20867;BMP280;10593;48.398;10.698;2024-01-07T08:14:49;95624.44;;;10.44
20867;BMP280;10593;48.398;10.698;2024-01-07T08:17:15;95618.47;;;10.43
20867;BMP280;10593;48.398;10.698;2024-01-07T08:19:41;95627.06;;;10.42
20867;BMP280;10593;48.398;10.698;2024-01-07T08:22:06;95629.59;;;10.44
20867;BMP280;10593;48.398;10.698;2024-01-07T08:24:32;95628.72;;;10.43
20867;BMP280;10593;48.398;10.698;2024-01-07T08:26:58;95627.91;;;10.43
20867;BMP280;10593;48.398;10.698;2024-01-07T08:29:24;95627.91;;;10.43
20867;BMP280;10593;48.398;10.698;2024-01-07T08:31:49;95635.53;;;10.44
20867;BMP280;10593;48.398;10.698;2024-01-07T08:34:16;95635.53;;;10.44
20867;BMP280;10593;48.398;10.698;2024-01-07T08:36:41;95627.84;;;10.44
20867;BMP280;10593;48.398;10.698;2024-01-07T08:39:07;95640.69;;;10.44
20867;BMP280;10593;48.398;10.698;2024-01-07T08:41:33;95639.84;;;10.44
20867;BMP280;10593;48.398;10.698;2024-01-07T08:43:59;95638.13;;;10.44
20867;BMP280;10593;48.398;10.698;2024-01-07T08:46:25;95644.94;;;10.45
20867;BMP280;10593;48.398;10.698;2024-01-07T08:48:50;95646.69;;;10.45
20867;BMP280;10593;48.398;10.698;2024-01-07T08:51:16;95645.81;;;10.44
20867;BMP280;10593;48.398;10.698;2024-01-07T08:53:42;95647.50;;;10.45
20867;BMP280;10593;48.398;10.698;2024-01-07T08:56:07;95654.38;;;10.45
20867;BMP280;10593;48.398;10.698;2024-01-07T08:58:34;95654.38;;;10.45
20867;BMP280;10593;48.398;10.698;2024-01-07T09:01:00;95662.91;;;10.45
20867;BMP280;10593;48.398;10.698;2024-01-07T09:03:26;95660.34;;;10.45
20867;BMP280;10593;48.398;10.698;2024-01-07T09:05:52;95663.78;;;10.44
20867;BMP280;10593;48.398;10.698;2024-01-07T09:08:18;95666.34;;;10.46
20867;BMP280;10593;48.398;10.698;2024-01-07T09:10:43;95669.78;;;10.45
20867;BMP280;10593;48.398;10.698;2024-01-07T09:13:09;95668.94;;;10.44
20867;BMP280;10593;48.398;10.698;2024-01-07T09:15:35;95664.69;;;10.43
20867;BMP280;10593;48.398;10.698;2024-01-07T09:18:00;95669.81;;;10.43
20867;BMP280;10593;48.398;10.698;2024-01-07T09:20:27;95674.13;;;10.43
20867;BMP280;10593;48.398;10.698;2024-01-07T09:22:53;95675.84;;;10.42
20867;BMP280;10593;48.398;10.698;2024-01-07T09:25:18;95672.44;;;10.42
20867;BMP280;10593;48.398;10.698;2024-01-07T09:27:44;95687.00;;;10.41
20867;BMP280;10593;48.398;10.698;2024-01-07T09:30:10;95687.91;;;10.39
20867;BMP280;10593;48.398;10.698;2024-01-07T09:32:37;95698.25;;;10.38
20867;BMP280;10593;48.398;10.698;2024-01-07T09:35:03;95692.25;;;10.37
20867;BMP280;10593;48.398;10.698;2024-01-07T09:37:31;95697.44;;;10.36
20867;BMP280;10593;48.398;10.698;2024-01-07T09:39:57;95698.25;;;10.36
20867;BMP280;10593;48.398;10.698;2024-01-07T09:42:22;95701.72;;;10.35
20867;BMP280;10593;48.398;10.698;2024-01-07T09:44:50;95698.28;;;10.34
20867;BMP280;10593;48.398;10.698;2024-01-07T09:47:16;95703.50;;;10.33
20867;BMP280;10593;48.398;10.698;2024-01-07T09:49:43;95704.31;;;10.33
20867;BMP280;10593;48.398;10.698;2024-01-07T09:52:11;95709.44;;;10.33
20867;BMP280;10593;48.398;10.698;2024-01-07T09:54:39;95700.91;;;10.33
20867;BMP280;10593;48.398;10.698;2024-01-07T09:57:07;95710.31;;;10.34
20867;BMP280;10593;48.398;10.698;2024-01-07T09:59:34;95706.00;;;10.34
20867;BMP280;10593;48.398;10.698;2024-01-07T10:02:00;95704.31;;;10.33
20867;BMP280;10593;48.398;10.698;2024-01-07T10:04:27;95705.16;;;10.34
20867;BMP280;10593;48.398;10.698;2024-01-07T10:06:56;95707.72;;;10.34
20867;BMP280;10593;48.398;10.698;2024-01-07T10:09:23;95706.06;;;10.33
20867;BMP280;10593;48.398;10.698;2024-01-07T10:11:51;95710.31;;;10.34
20867;BMP280;10593;48.398;10.698;2024-01-07T10:14:16;95715.44;;;10.34
20867;BMP280;10593;48.398;10.698;2024-01-07T10:16:42;95710.31;;;10.34
20867;BMP280;10593;48.398;10.698;2024-01-07T10:19:08;95712.00;;;10.33
20867;BMP280;10593;48.398;10.698;2024-01-07T10:21:34;95706.06;;;10.33
20867;BMP280;10593;48.398;10.698;2024-01-07T10:24:10;95714.59;;;10.33
20867;BMP280;10593;48.398;10.698;2024-01-07T10:26:38;95706.94;;;10.32
20867;BMP280;10593;48.398;10.698;2024-01-07T10:29:05;95707.75;;;10.32
20867;BMP280;10593;48.398;10.698;2024-01-07T10:31:32;95709.44;;;10.33
20867;BMP280;10593;48.398;10.698;2024-01-07T10:33:57;95706.88;;;10.33
20867;BMP280;10593;48.398;10.698;2024-01-07T10:36:24;95711.13;;;10.34
20867;BMP280;10593;48.398;10.698;2024-01-07T10:38:51;95710.31;;;10.34
20867;BMP280;10593;48.398;10.698;2024-01-07T10:41:19;95719.69;;;10.35
20867;BMP280;10593;48.398;10.698;2024-01-07T10:43:48;95721.41;;;10.34
20867;BMP280;10593;48.398;10.698;2024-01-07T10:46:15;95717.97;;;10.36
20867;BMP280;10593;48.398;10.698;2024-01-07T10:48:59;95709.44;;;10.33
20867;BMP280;10593;48.398;10.698;2024-01-07T10:51:28;95712.91;;;10.32
20867;BMP280;10593;48.398;10.698;2024-01-07T10:53:56;95706.06;;;10.32
20867;BMP280;10593;48.398;10.698;2024-01-07T10:57:07;95711.22;;;10.32
20867;BMP280;10593;48.398;10.698;2024-01-07T10:59:24;95715.56;;;10.30
20867;BMP280;10593;48.398;10.698;2024-01-07T11:01:49;95726.69;;;10.29
20867;BMP280;10593;48.398;10.698;2024-01-07T11:04:26;95723.28;;;10.28
20867;BMP280;10593;48.398;10.698;2024-01-07T11:07:25;95719.88;;;10.28
20867;BMP280;10593;48.398;10.698;2024-01-07T11:10:20;95718.28;;;10.24
20867;BMP280;10593;48.398;10.698;2024-01-07T11:12:56;95727.69;;;10.23
20867;BMP280;10593;48.398;10.698;2024-01-07T11:18:21;95726.09;;;10.19
20867;BMP280;10593;48.398;10.698;2024-01-07T11:20:47;95726.09;;;10.19
20867;BMP280;10593;48.398;10.698;2024-01-07T11:23:36;95722.66;;;10.20
20867;BMP280;10593;48.398;10.698;2024-01-07T11:26:07;95727.78;;;10.20
20867;BMP280;10593;48.398;10.698;2024-01-07T11:29:01;95725.22;;;10.20
20867;BMP280;10593;48.398;10.698;2024-01-07T11:34:05;95728.59;;;10.21
20867;BMP280;10593;48.398;10.698;2024-01-07T11:36:37;95726.03;;;10.21
20867;BMP280;10593;48.398;10.698;2024-01-07T11:39:04;95726.00;;;10.22
20867;BMP280;10593;48.398;10.698;2024-01-07T11:41:36;95732.00;;;10.23
20867;BMP280;10593;48.398;10.698;2024-01-07T11:44:03;95731.16;;;10.21
20867;BMP280;10593;48.398;10.698;2024-01-07T11:46:29;95728.59;;;10.21
20867;BMP280;10593;48.398;10.698;2024-01-07T11:48:59;95728.59;;;10.21
20867;BMP280;10593;48.398;10.698;2024-01-07T11:51:33;95728.59;;;10.21
20867;BMP280;10593;48.398;10.698;2024-01-07T11:54:01;95732.06;;;10.20
20867;BMP280;10593;48.398;10.698;2024-01-07T11:56:28;95731.16;;;10.21
20867;BMP280;10593;48.398;10.698;2024-01-07T11:58:54;95733.72;;;10.21
20867;BMP280;10593;48.398;10.698;2024-01-07T12:01:21;95720.97;;;10.18
20867;BMP280;10593;48.398;10.698;2024-01-07T12:03:47;95726.13;;;10.18
20867;BMP280;10593;48.398;10.698;2024-01-07T12:06:13;95735.50;;;10.19
20867;BMP280;10593;48.398;10.698;2024-01-07T12:08:43;95733.78;;;10.19
20867;BMP280;10593;48.398;10.698;2024-01-07T12:11:14;95735.50;;;10.19
20867;BMP280;10593;48.398;10.698;2024-01-07T12:13:41;95742.41;;;10.17
20867;BMP280;10593;48.398;10.698;2024-01-07T12:16:08;95739.84;;;10.17
20867;BMP280;10593;48.398;10.698;2024-01-07T12:18:39;95740.69;;;10.17
20867;BMP280;10593;48.398;10.698;2024-01-07T12:21:05;95739.84;;;10.17
20867;BMP280;10593;48.398;10.698;2024-01-07T12:23:35;95747.53;;;10.17
20867;BMP280;10593;48.398;10.698;2024-01-07T12:26:09;95742.41;;;10.17
20867;BMP280;10593;48.398;10.698;2024-01-07T12:28:35;95743.28;;;10.16
20867;BMP280;10593;48.398;10.698;2024-01-07T12:31:02;95744.16;;;10.16
20867;BMP280;10593;48.398;10.698;2024-01-07T12:33:29;95745.84;;;10.16
20867;BMP280;10593;48.398;10.698;2024-01-07T12:35:57;95745.84;;;10.16
20867;BMP280;10593;48.398;10.698;2024-01-07T12:38:27;95745.88;;;10.14
20867;BMP280;10593;48.398;10.698;2024-01-07T12:40:53;95755.31;;;10.14
20867;BMP280;10593;48.398;10.698;2024-01-07T12:43:19;95756.22;;;10.11
20867;BMP280;10593;48.398;10.698;2024-01-07T12:45:47;95753.72;;;10.10
20867;BMP280;10593;48.398;10.698;2024-01-07T12:48:12;95766.53;;;10.10
20867;BMP280;10593;48.398;10.698;2024-01-07T12:50:38;95767.47;;;10.07
20867;BMP280;10593;48.398;10.698;2024-01-07T12:53:04;95763.16;;;10.08
20867;BMP280;10593;48.398;10.698;2024-01-07T12:55:31;95764.88;;;10.07
20867;BMP280;10593;48.398;10.698;2024-01-07T12:57:57;95768.28;;;10.08
20867;BMP280;10593;48.398;10.698;2024-01-07T13:00:24;95766.59;;;10.07
20867;BMP280;10593;48.398;10.698;2024-01-07T13:02:50;95768.34;;;10.05
20867;BMP280;10593;48.398;10.698;2024-01-07T13:05:17;95772.59;;;10.06
20867;BMP280;10593;48.398;10.698;2024-01-07T13:07:42;95773.50;;;10.05
20867;BMP280;10593;48.398;10.698;2024-01-07T13:10:08;95774.34;;;10.05
20867;BMP280;10593;48.398;10.698;2024-01-07T13:12:35;95776.94;;;10.04
20867;BMP280;10593;48.398;10.698;2024-01-07T13:15:02;95782.13;;;10.02
20867;BMP280;10593;48.398;10.698;2024-01-07T13:17:29;95786.41;;;10.02
20867;BMP280;10593;48.398;10.698;2024-01-07T13:19:56;95787.25;;;10.01
20867;BMP280;10593;48.398;10.698;2024-01-07T13:22:21;95794.94;;;10.01
20867;BMP280;10593;48.398;10.698;2024-01-07T13:24:47;95794.94;;;10.01
20867;BMP280;10593;48.398;10.698;2024-01-07T13:27:13;95791.56;;;9.99
20867;BMP280;10593;48.398;10.698;2024-01-07T13:29:39;95792.47;;;9.98
20867;BMP280;10593;48.398;10.698;2024-01-07T13:32:05;95801.03;;;9.97
20867;BMP280;10593;48.398;10.698;2024-01-07T13:34:30;95795.91;;;9.97
20867;BMP280;10593;48.398;10.698;2024-01-07T13:36:56;95794.22;;;9.96
20867;BMP280;10593;48.398;10.698;2024-01-07T13:39:22;95805.31;;;9.96
20867;BMP280;10593;48.398;10.698;2024-01-07T13:41:47;95805.31;;;9.96
20867;BMP280;10593;48.398;10.698;2024-01-07T13:44:13;95809.63;;;9.96
20867;BMP280;10593;48.398;10.698;2024-01-07T13:46:46;95808.75;;;9.97
20867;BMP280;10593;48.398;10.698;2024-01-07T13:49:13;95820.72;;;9.96
20867;BMP280;10593;48.398;10.698;2024-01-07T13:51:42;95809.63;;;9.96
20867;BMP280;10593;48.398;10.698;2024-01-07T13:54:08;95817.31;;;9.96
20867;BMP280;10593;48.398;10.698;2024-01-07T13:56:36;95814.75;;;9.96
20867;BMP280;10593;48.398;10.698;2024-01-07T13:59:02;95825.00;;;9.96